sensor_id;sensor_type;location;lat;lon;timestamp;pressure;altitude;pressure_sealevel;temperature;humidity
51359;BME280;37448;51.588;7.248;2023-05-10T00:00:01;100131.56;;;13.10;99.92
51359;BME280;37448;51.588;7.248;2023-05-10T00:02:13;100126.53;;;13.05;100.00
51359;BME280;37448;51.588;7.248;2023-05-10T00:04:13;100145.47;;;12.90;99.58
51359;BME280;37448;51.588;7.248;2023-05-10T00:06:14;100140.06;;;12.95;100.00
51359;BME280;37448;51.588;7.248;2023-05-10T00:08:14;100146.34;;;12.90;100.00
51359;BME280;37448;51.588;7.248;2023-05-10T00:10:15;100146.25;;;12.92;100.00
51359;BME280;37448;51.588;7.248;2023-05-10T00:12:15;100154.88;;;12.96;100.00
51359;BME280;37448;51.588;7.248;2023-05-10T00:14:16;100144.50;;;12.92;100.00
51359;BME280;37448;51.588;7.248;2023-05-10T00:16:16;100144.50;;;12.92;100.00
51359;BME280;37448;51.588;7.248;2023-05-10T00:18:17;100141.97;;;12.89;100.00
51359;BME280;37448;51.588;7.248;2023-05-10T00:20:17;100143.72;;;12.90;100.00
51359;BME280;37448;51.588;7.248;2023-05-10T00:22:18;100143.00;;;12.85;100.00
51359;BME280;37448;51.588;7.248;2023-05-10T00:24:18;100143.00;;;12.85;100.00
51359;BME280;37448;51.588;7.248;2023-05-10T00:26:18;100143.25;;;12.79;100.00
51359;BME280;37448;51.588;7.248;2023-05-10T00:28:27;100146.56;;;12.84;100.00
51359;BME280;37448;51.588;7.248;2023-05-10T00:30:27;100139.59;;;12.83;100.00
51359;BME280;37448;51.588;7.248;2023-05-10T00:32:28;100147.41;;;12.85;100.00
51359;BME280;37448;51.588;7.248;2023-05-10T00:34:29;100145.50;;;12.88;100.00
51359;BME280;37448;51.588;7.248;2023-05-10T00:36:30;100145.41;;;12.91;100.00
51359;BME280;37448;51.588;7.248;2023-05-10T00:38:31;100145.34;;;12.93;100.00
51359;BME280;37448;51.588;7.248;2023-05-10T00:40:31;100144.59;;;12.89;100.00
51359;BME280;37448;51.588;7.248;2023-05-10T00:42:37;100140.59;;;12.81;100.00
51359;BME280;37448;51.588;7.248;2023-05-10T00:44:37;100143.88;;;12.86;100.00
51359;BME280;37448;51.588;7.248;2023-05-10T00:46:40;100141.19;;;12.87;100.00
51359;BME280;37448;51.588;7.248;2023-05-10T00:48:42;100143.75;;;12.89;100.00
51359;BME280;37448;51.588;7.248;2023-05-10T00:50:43;100141.19;;;12.87;100.00
51359;BME280;37448;51.588;7.248;2023-05-10T00:52:44;100145.59;;;12.87;100.00
51359;BME280;37448;51.588;7.248;2023-05-10T00:54:45;100148.25;;;12.85;100.00
51359;BME280;37448;51.588;7.248;2023-05-10T00:56:47;100145.63;;;12.85;100.00
51359;BME280;37448;51.588;7.248;2023-05-10T00:58:49;100146.56;;;12.84;100.00
51359;BME280;37448;51.588;7.248;2023-05-10T01:00:50;100142.31;;;12.82;100.00
51359;BME280;37448;51.588;7.248;2023-05-10T01:02:53;100148.38;;;12.82;100.00
51359;BME280;37448;51.588;7.248;2023-05-10T01:04:53;100140.53;;;12.82;100.00
51359;BME280;37448;51.588;7.248;2023-05-10T01:06:54;100147.41;;;12.85;100.00
51359;BME280;37448;51.588;7.248;2023-05-10T01:08:55;100142.19;;;12.85;100.00
51359;BME280;37448;51.588;7.248;2023-05-10T01:10:56;100132.78;;;12.79;100.00
51359;BME280;37448;51.588;7.248;2023-05-10T01:12:58;100150.09;;;12.83;100.00
51359;BME280;37448;51.588;7.248;2023-05-10T01:15:00;100140.53;;;12.82;100.00
51359;BME280;37448;51.588;7.248;2023-05-10T01:17:01;100141.44;;;12.81;100.00
51359;BME280;37448;51.588;7.248;2023-05-10T01:19:04;100143.38;;;12.76;100.00
51359;BME280;37448;51.588;7.248;2023-05-10T01:26:42;100148.88;;;12.70;100.00
51359;BME280;37448;51.588;7.248;2023-05-10T01:31:30;100155.31;;;12.61;100.00
51359;BME280;37448;51.588;7.248;2023-05-10T01:33:52;100157.00;;;12.62;100.00
51359;BME280;37448;51.588;7.248;2023-05-10T01:36:05;100161.38;;;12.61;100.00
51359;BME280;37448;51.588;7.248;2023-05-10T01:40:54;100166.03;;;12.55;100.00
51359;BME280;37448;51.588;7.248;2023-05-10T01:43:04;100163.59;;;12.48;100.00
51359;BME280;37448;51.588;7.248;2023-05-10T01:45:15;100171.47;;;12.48;100.00
51359;BME280;37448;51.588;7.248;2023-05-10T01:47:26;100170.63;;;12.48;100.00
51359;BME280;37448;51.588;7.248;2023-05-10T01:49:34;100175.06;;;12.46;100.00
51359;BME280;37448;51.588;7.248;2023-05-10T01:51:48;100178.59;;;12.45;100.00
51359;BME280;37448;51.588;7.248;2023-05-10T01:53:54;100176.88;;;12.44;100.00
51359;BME280;37448;51.588;7.248;2023-05-10T01:55:56;100178.63;;;12.43;100.00
51359;BME280;37448;51.588;7.248;2023-05-10T01:58:05;100179.38;;;12.47;100.00
51359;BME280;37448;51.588;7.248;2023-05-10T02:00:09;100176.06;;;12.42;100.00
51359;BME280;37448;51.588;7.248;2023-05-10T02:02:18;100184.03;;;12.39;100.00
51359;BME280;37448;51.588;7.248;2023-05-10T02:04:21;100174.59;;;12.34;100.00
51359;BME280;37448;51.588;7.248;2023-05-10T02:06:25;100174.19;;;12.22;100.00
51359;BME280;37448;51.588;7.248;2023-05-10T02:08:26;100179.91;;;12.08;100.00
51359;BME280;37448;51.588;7.248;2023-05-10T02:10:28;100181.00;;;12.00;100.00
51359;BME280;37448;51.588;7.248;2023-05-10T02:12:29;100181.88;;;12.01;100.00
51359;BME280;37448;51.588;7.248;2023-05-10T02:14:35;100187.06;;;12.02;100.00
51359;BME280;37448;51.588;7.248;2023-05-10T02:16:37;100192.47;;;11.96;100.00
51359;BME280;37448;51.588;7.248;2023-05-10T02:18:39;100188.88;;;11.99;100.00
51359;BME280;37448;51.588;7.248;2023-05-10T02:20:41;100191.47;;;12.00;100.00
51359;BME280;37448;51.588;7.248;2023-05-10T02:22:43;100191.56;;;11.97;100.00
51359;BME280;37448;51.588;7.248;2023-05-10T02:24:46;100188.25;;;11.92;100.00
51359;BME280;37448;51.588;7.248;2023-05-10T02:26:48;100190.66;;;11.98;100.00
51359;BME280;37448;51.588;7.248;2023-05-10T02:28:50;100200.22;;;11.99;100.00
51359;BME280;37448;51.588;7.248;2023-05-10T02:30:51;100199.31;;;12.00;100.00
51359;BME280;37448;51.588;7.248;2023-05-10T02:32:53;100205.59;;;11.95;100.00
51359;BME280;37448;51.588;7.248;2023-05-10T02:34:54;100201.25;;;11.95;100.00
51359;BME280;37448;51.588;7.248;2023-05-10T02:36:56;100192.53;;;11.95;100.00
51359;BME280;37448;51.588;7.248;2023-05-10T02:38:58;100204.69;;;11.96;100.00
51359;BME280;37448;51.588;7.248;2023-05-10T02:41:01;100205.66;;;11.93;100.00
51359;BME280;37448;51.588;7.248;2023-05-10T02:43:02;100205.66;;;11.93;100.00
51359;BME280;37448;51.588;7.248;2023-05-10T02:45:11;100207.38;;;11.94;100.00
51359;BME280;37448;51.588;7.248;2023-05-10T02:47:12;100195.19;;;11.93;100.00
51359;BME280;37448;51.588;7.248;2023-05-10T02:49:13;100203.94;;;11.92;100.00
51359;BME280;37448;51.588;7.248;2023-05-10T02:51:15;100203.22;;;11.88;100.00
51359;BME280;37448;51.588;7.248;2023-05-10T02:53:34;100197.88;;;11.91;100.00
51359;BME280;37448;51.588;7.248;2023-05-10T02:55:39;100197.75;;;11.95;100.00
51359;BME280;37448;51.588;7.248;2023-05-10T02:57:49;100202.16;;;11.94;100.00
51359;BME280;37448;51.588;7.248;2023-05-10T02:59:51;100194.19;;;11.97;100.00
51359;BME280;37448;51.588;7.248;2023-05-10T03:01:51;100211.59;;;11.98;100.00
51359;BME280;37448;51.588;7.248;2023-05-10T03:03:52;100202.09;;;11.96;100.00
51359;BME280;37448;51.588;7.248;2023-05-10T03:05:52;100202.16;;;11.94;100.00
51359;BME280;37448;51.588;7.248;2023-05-10T03:07:56;100205.66;;;11.93;100.00
51359;BME280;37448;51.588;7.248;2023-05-10T03:09:57;100207.38;;;11.94;100.00
51359;BME280;37448;51.588;7.248;2023-05-10T03:16:34;100198.69;;;11.92;100.00
51359;BME280;37448;51.588;7.248;2023-05-10T03:18:42;100211.63;;;11.97;100.00
51359;BME280;37448;51.588;7.248;2023-05-10T03:20:48;100218.59;;;11.98;100.00
51359;BME280;37448;51.588;7.248;2023-05-10T03:22:53;100205.38;;;12.02;100.00
51359;BME280;37448;51.588;7.248;2023-05-10T03:24:55;100210.66;;;12.01;100.00
51359;BME280;37448;51.588;7.248;2023-05-10T03:26:58;100211.53;;;12.01;100.00
51359;BME280;37448;51.588;7.248;2023-05-10T03:29:04;100214.88;;;12.05;100.00
51359;BME280;37448;51.588;7.248;2023-05-10T03:31:05;100217.63;;;12.00;100.00
51359;BME280;37448;51.588;7.248;2023-05-10T03:33:07;100222.84;;;12.02;100.00
51359;BME280;37448;51.588;7.248;2023-05-10T03:35:12;100214.16;;;12.00;100.00
51359;BME280;37448;51.588;7.248;2023-05-10T03:37:13;100217.56;;;12.03;100.00
51359;BME280;37448;51.588;7.248;2023-05-10T03:39:14;100220.19;;;12.03;100.00
51359;BME280;37448;51.588;7.248;2023-05-10T03:41:15;100225.34;;;12.05;100.00
51359;BME280;37448;51.588;7.248;2023-05-10T03:43:15;100221.16;;;11.99;100.00
51359;BME280;37448;51.588;7.248;2023-05-10T03:45:16;100228.09;;;12.00;100.00
51359;BME280;37448;51.588;7.248;2023-05-10T03:47:17;100230.56;;;12.05;100.00
51359;BME280;37448;51.588;7.248;2023-05-10T03:49:17;100228.03;;;12.03;100.00
51359;BME280;37448;51.588;7.248;2023-05-10T03:51:18;100230.94;;;11.94;100.00
51359;BME280;37448;51.588;7.248;2023-05-10T03:53:18;100241.22;;;11.99;100.00
51359;BME280;37448;51.588;7.248;2023-05-10T03:55:18;100237.69;;;12.00;100.00
51359;BME280;37448;51.588;7.248;2023-05-10T03:57:19;100237.63;;;12.03;100.00
51359;BME280;37448;51.588;7.248;2023-05-10T03:59:20;100244.72;;;11.99;100.00
51359;BME280;37448;51.588;7.248;2023-05-10T04:01:20;100242.09;;;11.99;100.00
51359;BME280;37448;51.588;7.248;2023-05-10T04:03:21;100242.09;;;11.99;100.00
51359;BME280;37448;51.588;7.248;2023-05-10T04:05:21;100242.00;;;12.02;100.00
51359;BME280;37448;51.588;7.248;2023-05-10T04:07:21;100236.78;;;12.02;100.00
51359;BME280;37448;51.588;7.248;2023-05-10T04:09:22;100238.50;;;12.03;100.00
51359;BME280;37448;51.588;7.248;2023-05-10T04:11:22;100242.25;;;11.95;100.00
51359;BME280;37448;51.588;7.248;2023-05-10T04:13:24;100240.50;;;11.95;100.00
51359;BME280;37448;51.588;7.248;2023-05-10T04:15:25;100245.44;;;12.04;100.00
51359;BME280;37448;51.588;7.248;2023-05-10T04:17:25;100234.03;;;12.07;100.00
51359;BME280;37448;51.588;7.248;2023-05-10T04:19:32;100235.78;;;12.06;100.00
51359;BME280;37448;51.588;7.248;2023-05-10T04:21:32;100229.63;;;12.08;100.00
51359;BME280;37448;51.588;7.248;2023-05-10T04:23:33;100236.56;;;12.09;100.00
51359;BME280;37448;51.588;7.248;2023-05-10T04:25:34;100237.47;;;12.08;100.00
51359;BME280;37448;51.588;7.248;2023-05-10T04:27:35;100242.72;;;12.08;100.00
51359;BME280;37448;51.588;7.248;2023-05-10T04:29:35;100253.97;;;12.10;100.00
51359;BME280;37448;51.588;7.248;2023-05-10T04:31:36;100238.28;;;12.10;100.00
51359;BME280;37448;51.588;7.248;2023-05-10T04:33:36;100242.59;;;12.11;100.00
51359;BME280;37448;51.588;7.248;2023-05-10T04:35:37;100239.06;;;12.12;100.00
51359;BME280;37448;51.588;7.248;2023-05-10T04:37:37;100250.47;;;12.11;100.00
51359;BME280;37448;51.588;7.248;2023-05-10T04:39:38;100239.94;;;12.12;100.00
51359;BME280;37448;51.588;7.248;2023-05-10T04:41:38;100245.09;;;12.14;100.00
51359;BME280;37448;51.588;7.248;2023-05-10T04:43:38;100252.28;;;12.09;100.00
51359;BME280;37448;51.588;7.248;2023-05-10T04:45:39;100249.44;;;12.15;100.00
51359;BME280;37448;51.588;7.248;2023-05-10T04:47:39;100258.16;;;12.15;100.00
51359;BME280;37448;51.588;7.248;2023-05-10T04:49:40;100255.56;;;12.14;100.00
51359;BME280;37448;51.588;7.248;2023-05-10T04:51:40;100261.72;;;12.13;100.00
51359;BME280;37448;51.588;7.248;2023-05-10T04:53:41;100257.41;;;12.12;100.00
51359;BME280;37448;51.588;7.248;2023-05-10T04:55:42;100253.97;;;12.10;100.00
51359;BME280;37448;51.588;7.248;2023-05-10T04:57:42;100260.00;;;12.12;100.00
51359;BME280;37448;51.588;7.248;2023-05-10T05:03:04;100269.56;;;12.13;100.00
51359;BME280;37448;51.588;7.248;2023-05-10T05:05:05;100272.09;;;12.16;100.00
51359;BME280;37448;51.588;7.248;2023-05-10T05:07:06;100274.69;;;12.16;100.00
51359;BME280;37448;51.588;7.248;2023-05-10T05:09:06;100265.09;;;12.16;100.00
51359;BME280;37448;51.588;7.248;2023-05-10T05:11:06;100268.53;;;12.18;100.00
51359;BME280;37448;51.588;7.248;2023-05-10T05:13:07;100272.19;;;12.13;100.00
51359;BME280;37448;51.588;7.248;2023-05-10T05:15:07;100277.44;;;12.13;100.00
51359;BME280;37448;51.588;7.248;2023-05-10T05:17:09;100271.19;;;12.17;100.00
51359;BME280;37448;51.588;7.248;2023-05-10T05:19:10;100275.56;;;12.16;100.00
51359;BME280;37448;51.588;7.248;2023-05-10T05:21:17;100278.94;;;12.20;100.00
51359;BME280;37448;51.588;7.248;2023-05-10T05:23:18;100276.63;;;12.11;100.00
51359;BME280;37448;51.588;7.248;2023-05-10T05:25:20;100274.91;;;12.10;100.00
51359;BME280;37448;51.588;7.248;2023-05-10T05:27:21;100281.66;;;12.17;100.00
51359;BME280;37448;51.588;7.248;2023-05-10T05:29:24;100286.81;;;12.20;100.00
51359;BME280;37448;51.588;7.248;2023-05-10T05:31:24;100288.50;;;12.21;100.00
51359;BME280;37448;51.588;7.248;2023-05-10T05:33:25;100280.59;;;12.23;100.00
51359;BME280;37448;51.588;7.248;2023-05-10T05:35:25;100283.16;;;12.24;100.00
51359;BME280;37448;51.588;7.248;2023-05-10T05:37:26;100286.59;;;12.26;100.00
51359;BME280;37448;51.588;7.248;2023-05-10T05:39:26;100294.44;;;12.26;100.00
51359;BME280;37448;51.588;7.248;2023-05-10T05:41:26;100291.72;;;12.29;100.00
51359;BME280;37448;51.588;7.248;2023-05-10T05:43:27;100288.19;;;12.30;100.00
51359;BME280;37448;51.588;7.248;2023-05-10T05:45:27;100290.66;;;12.35;100.00
51359;BME280;37448;51.588;7.248;2023-05-10T05:47:27;100291.50;;;12.35;100.00
51359;BME280;37448;51.588;7.248;2023-05-10T05:49:28;100293.31;;;12.33;100.00
51359;BME280;37448;51.588;7.248;2023-05-10T05:51:28;100290.84;;;12.29;100.00
51359;BME280;37448;51.588;7.248;2023-05-10T05:53:29;100298.66;;;12.30;100.00
51359;BME280;37448;51.588;7.248;2023-05-10T05:55:29;100303.00;;;12.31;100.00
51359;BME280;37448;51.588;7.248;2023-05-10T05:57:31;100299.56;;;12.29;100.00
51359;BME280;37448;51.588;7.248;2023-05-10T05:59:31;100309.16;;;12.29;100.00
51359;BME280;37448;51.588;7.248;2023-05-10T06:01:32;100302.28;;;12.26;100.00
51359;BME280;37448;51.588;7.248;2023-05-10T06:03:32;100308.44;;;12.25;100.00
51359;BME280;37448;51.588;7.248;2023-05-10T06:05:33;100311.97;;;12.24;100.00
51359;BME280;37448;51.588;7.248;2023-05-10T06:07:33;100313.88;;;12.19;100.00
51359;BME280;37448;51.588;7.248;2023-05-10T06:09:34;100319.03;;;12.22;100.00
51359;BME280;37448;51.588;7.248;2023-05-10T06:11:34;100319.94;;;12.21;100.00
51359;BME280;37448;51.588;7.248;2023-05-10T06:13:35;100316.22;;;12.27;100.00
51359;BME280;37448;51.588;7.248;2023-05-10T06:15:36;100313.56;;;12.28;100.00
51359;BME280;37448;51.588;7.248;2023-05-10T06:17:36;100317.03;;;12.29;100.00
51359;BME280;37448;51.588;7.248;2023-05-10T06:19:36;100322.13;;;12.33;100.00
51359;BME280;37448;51.588;7.248;2023-05-10T06:21:37;100331.56;;;12.38;100.00
51359;BME280;37448;51.588;7.248;2023-05-10T06:23:37;100330.06;;;12.30;100.00
51359;BME280;37448;51.588;7.248;2023-05-10T06:25:38;100330.78;;;12.35;100.00
51359;BME280;37448;51.588;7.248;2023-05-10T06:27:38;100341.03;;;12.42;100.00
51359;BME280;37448;51.588;7.248;2023-05-10T06:29:38;100348.88;;;12.42;100.00
51359;BME280;37448;51.588;7.248;2023-05-10T06:31:39;100344.31;;;12.48;100.00
51359;BME280;37448;51.588;7.248;2023-05-10T06:33:39;100345.06;;;12.52;100.00
51359;BME280;37448;51.588;7.248;2023-05-10T06:35:40;100345.06;;;12.52;100.00
51359;BME280;37448;51.588;7.248;2023-05-10T06:37:40;100340.66;;;12.53;100.00
51359;BME280;37448;51.588;7.248;2023-05-10T06:39:41;100345.00;;;12.54;100.00
51359;BME280;37448;51.588;7.248;2023-05-10T06:41:41;100342.13;;;12.61;100.00
51359;BME280;37448;51.588;7.248;2023-05-10T06:43:42;100341.09;;;12.66;100.00
51359;BME280;37448;51.588;7.248;2023-05-10T06:45:43;100341.97;;;12.66;100.00
51359;BME280;37448;51.588;7.248;2023-05-10T06:47:43;100340.78;;;12.75;100.00
51359;BME280;37448;51.588;7.248;2023-05-10T06:49:44;100348.44;;;12.81;100.00
51359;BME280;37448;51.588;7.248;2023-05-10T06:51:44;100344.59;;;12.91;100.00
51359;BME280;37448;51.588;7.248;2023-05-10T06:53:45;100341.97;;;12.91;100.00
51359;BME280;37448;51.588;7.248;2023-05-10T06:55:45;100347.63;;;13.04;100.00
51359;BME280;37448;51.588;7.248;2023-05-10T06:57:46;100347.44;;;13.09;100.00
51359;BME280;37448;51.588;7.248;2023-05-10T06:59:46;100352.66;;;13.09;100.00
51359;BME280;37448;51.588;7.248;2023-05-10T07:01:46;100357.47;;;13.21;100.00
51359;BME280;37448;51.588;7.248;2023-05-10T07:03:47;100350.84;;;13.35;100.00
51359;BME280;37448;51.588;7.248;2023-05-10T07:05:47;100350.31;;;13.51;100.00
51359;BME280;37448;51.588;7.248;2023-05-10T07:07:48;100352.81;;;13.54;100.00
51359;BME280;37448;51.588;7.248;2023-05-10T07:09:48;100357.84;;;13.82;100.00
51359;BME280;37448;51.588;7.248;2023-05-10T07:11:49;100356.38;;;13.75;100.00
51359;BME280;37448;51.588;7.248;2023-05-10T07:13:50;100358.25;;;13.93;100.00
51359;BME280;37448;51.588;7.248;2023-05-10T07:15:50;100363.38;;;13.97;100.00
51359;BME280;37448;51.588;7.248;2023-05-10T07:17:51;100362.00;;;13.88;100.00
51359;BME280;37448;51.588;7.248;2023-05-10T07:19:52;100361.44;;;13.80;100.00
51359;BME280;37448;51.588;7.248;2023-05-10T07:21:52;100361.09;;;13.89;100.00
51359;BME280;37448;51.588;7.248;2023-05-10T07:23:53;100366.06;;;13.73;98.82
51359;BME280;37448;51.588;7.248;2023-05-10T07:25:53;100368.03;;;13.90;99.07
51359;BME280;37448;51.588;7.248;2023-05-10T07:27:54;100361.25;;;14.06;98.82
51359;BME280;37448;51.588;7.248;2023-05-10T07:29:54;100369.03;;;14.30;97.51
51359;BME280;37448;51.588;7.248;2023-05-10T07:31:55;100367.91;;;14.79;99.75
51359;BME280;37448;51.588;7.248;2023-05-10T07:33:55;100361.38;;;15.09;97.53
51359;BME280;37448;51.588;7.248;2023-05-10T07:35:55;100373.91;;;15.42;96.61
51359;BME280;37448;51.588;7.248;2023-05-10T07:37:56;100368.03;;;15.56;92.59
51359;BME280;37448;51.588;7.248;2023-05-10T07:39:56;100364.53;;;16.11;98.41
51359;BME280;37448;51.588;7.248;2023-05-10T07:41:56;100364.47;;;16.13;93.04
51359;BME280;37448;51.588;7.248;2023-05-10T07:43:57;100361.38;;;16.22;95.36
51359;BME280;37448;51.588;7.248;2023-05-10T07:45:57;100377.28;;;16.20;95.38
51359;BME280;37448;51.588;7.248;2023-05-10T07:47:59;100365.84;;;16.02;94.92
51359;BME280;37448;51.588;7.248;2023-05-10T07:50:00;100366.88;;;15.81;93.04
51359;BME280;37448;51.588;7.248;2023-05-10T07:52:02;100363.31;;;15.82;96.75
51359;BME280;37448;51.588;7.248;2023-05-10T07:54:03;100367.31;;;15.52;90.58
51359;BME280;37448;51.588;7.248;2023-05-10T07:56:30;100374.97;;;15.76;93.92
51359;BME280;37448;51.588;7.248;2023-05-10T07:58:31;100371.66;;;15.91;94.18
51359;BME280;37448;51.588;7.248;2023-05-10T08:00:32;100376.22;;;15.86;94.12
51359;BME280;37448;51.588;7.248;2023-05-10T08:02:34;100369.63;;;15.77;93.65
51359;BME280;37448;51.588;7.248;2023-05-10T08:04:35;100370.69;;;15.73;95.66
51359;BME280;37448;51.588;7.248;2023-05-10T08:06:35;100370.06;;;15.30;89.59
51359;BME280;37448;51.588;7.248;2023-05-10T08:08:36;100379.94;;;15.25;93.12
51359;BME280;37448;51.588;7.248;2023-05-10T08:10:36;100379.34;;;15.18;94.40
51359;BME280;37448;51.588;7.248;2023-05-10T08:12:37;100379.81;;;15.07;94.74
51359;BME280;37448;51.588;7.248;2023-05-10T08:14:38;100383.00;;;14.95;92.91
51359;BME280;37448;51.588;7.248;2023-05-10T08:16:38;100385.22;;;15.04;96.55
51359;BME280;37448;51.588;7.248;2023-05-10T08:18:39;100385.63;;;15.15;97.71
51359;BME280;37448;51.588;7.248;2023-05-10T08:20:39;100385.84;;;15.30;96.39
51359;BME280;37448;51.588;7.248;2023-05-10T08:22:40;100389.47;;;15.27;93.25
51359;BME280;37448;51.588;7.248;2023-05-10T08:24:40;100395.59;;;15.07;88.32
51359;BME280;37448;51.588;7.248;2023-05-10T08:26:42;100391.47;;;15.22;91.64
51359;BME280;37448;51.588;7.248;2023-05-10T08:28:42;100394.88;;;15.43;94.05
51359;BME280;37448;51.588;7.248;2023-05-10T08:30:42;100396.97;;;15.56;93.49
51359;BME280;37448;51.588;7.248;2023-05-10T08:32:43;100399.75;;;15.72;92.36
51359;BME280;37448;51.588;7.248;2023-05-10T08:34:43;100406.00;;;15.69;88.78
51359;BME280;37448;51.588;7.248;2023-05-10T08:36:43;100398.72;;;15.74;90.37
51359;BME280;37448;51.588;7.248;2023-05-10T08:38:44;100400.78;;;15.48;85.48
51359;BME280;37448;51.588;7.248;2023-05-10T08:40:44;100405.69;;;15.75;91.52
51359;BME280;37448;51.588;7.248;2023-05-10T08:42:55;100412.13;;;15.70;86.80
51359;BME280;37448;51.588;7.248;2023-05-10T08:44:59;100413.69;;;15.74;84.46
51359;BME280;37448;51.588;7.248;2023-05-10T08:47:04;100422.38;;;15.95;90.99
51359;BME280;37448;51.588;7.248;2023-05-10T08:49:07;100424.25;;;15.72;87.23
51359;BME280;37448;51.588;7.248;2023-05-10T08:51:13;100429.09;;;15.62;92.19
51359;BME280;37448;51.588;7.248;2023-05-10T08:53:14;100425.53;;;15.44;91.26
51359;BME280;37448;51.588;7.248;2023-05-10T08:55:16;100426.31;;;15.27;91.54
51359;BME280;37448;51.588;7.248;2023-05-10T08:57:16;100427.75;;;15.14;91.19
51359;BME280;37448;51.588;7.248;2023-05-10T08:59:17;100427.66;;;14.96;90.65
51359;BME280;37448;51.588;7.248;2023-05-10T09:01:18;100423.09;;;15.00;93.40
51359;BME280;37448;51.588;7.248;2023-05-10T09:03:20;100433.34;;;15.06;93.86
51359;BME280;37448;51.588;7.248;2023-05-10T09:05:20;100436.25;;;15.00;91.90
51359;BME280;37448;51.588;7.248;2023-05-10T09:07:21;100434.81;;;15.13;94.42
51359;BME280;37448;51.588;7.248;2023-05-10T09:09:21;100433.28;;;15.07;91.54
51359;BME280;37448;51.588;7.248;2023-05-10T09:11:23;100437.94;;;15.21;92.71
51359;BME280;37448;51.588;7.248;2023-05-10T09:13:24;100434.34;;;15.43;94.04
51359;BME280;37448;51.588;7.248;2023-05-10T09:15:25;100441.13;;;15.68;93.29
51359;BME280;37448;51.588;7.248;2023-05-10T09:17:27;100446.25;;;15.71;89.31
51359;BME280;37448;51.588;7.248;2023-05-10T09:19:28;100440.97;;;15.71;90.02
51359;BME280;37448;51.588;7.248;2023-05-10T09:21:29;100452.38;;;15.72;91.88
51359;BME280;37448;51.588;7.248;2023-05-10T09:23:31;100444.03;;;15.81;93.89
51359;BME280;37448;51.588;7.248;2023-05-10T09:25:32;100447.81;;;15.75;93.00
51359;BME280;37448;51.588;7.248;2023-05-10T09:27:35;100443.13;;;15.63;92.65
51359;BME280;37448;51.588;7.248;2023-05-10T09:29:41;100449.34;;;15.41;90.28
51359;BME280;37448;51.588;7.248;2023-05-10T09:33:51;100457.06;;;15.65;92.07
51359;BME280;37448;51.588;7.248;2023-05-10T09:35:52;100453.81;;;15.98;92.34
51359;BME280;37448;51.588;7.248;2023-05-10T09:37:54;100445.94;;;16.35;92.99
51359;BME280;37448;51.588;7.248;2023-05-10T09:39:55;100453.03;;;16.52;89.38
51359;BME280;37448;51.588;7.248;2023-05-10T09:41:55;100442.09;;;16.77;89.65
51359;BME280;37448;51.588;7.248;2023-05-10T09:43:56;100440.22;;;16.97;89.38
51359;BME280;37448;51.588;7.248;2023-05-10T09:45:56;100444.50;;;17.17;87.20
51359;BME280;37448;51.588;7.248;2023-05-10T09:47:57;100443.72;;;17.49;88.09
51359;BME280;37448;51.588;7.248;2023-05-10T09:50:00;100445.78;;;17.60;84.17
51359;BME280;37448;51.588;7.248;2023-05-10T09:52:05;100449.06;;;17.97;90.51
51359;BME280;37448;51.588;7.248;2023-05-10T09:54:14;100446.09;;;18.03;85.03
51359;BME280;37448;51.588;7.248;2023-05-10T09:56:32;100450.97;;;18.42;91.02
51359;BME280;37448;51.588;7.248;2023-05-10T09:58:36;100448.38;;;18.26;78.39
51359;BME280;37448;51.588;7.248;2023-05-10T10:00:45;100444.56;;;18.62;85.38
51359;BME280;37448;51.588;7.248;2023-05-10T10:02:54;100447.47;;;18.57;77.90
51359;BME280;37448;51.588;7.248;2023-05-10T10:04:55;100452.72;;;19.04;90.42
51359;BME280;37448;51.588;7.248;2023-05-10T10:07:02;100443.41;;;18.97;74.64
51359;BME280;37448;51.588;7.248;2023-05-10T10:09:04;100440.72;;;18.82;82.99
51359;BME280;37448;51.588;7.248;2023-05-10T10:11:04;100446.44;;;18.60;76.51
51359;BME280;37448;51.588;7.248;2023-05-10T10:13:04;100439.47;;;18.43;82.49
51359;BME280;37448;51.588;7.248;2023-05-10T10:15:07;100454.16;;;18.00;81.90
51359;BME280;37448;51.588;7.248;2023-05-10T10:17:08;100451.63;;;17.49;77.21
51359;BME280;37448;51.588;7.248;2023-05-10T10:19:09;100455.38;;;17.11;80.97
51359;BME280;37448;51.588;7.248;2023-05-10T10:21:10;100469.00;;;16.84;85.54
51359;BME280;37448;51.588;7.248;2023-05-10T10:23:13;100460.91;;;16.34;83.24
51359;BME280;37448;51.588;7.248;2023-05-10T10:25:15;100465.44;;;16.31;89.37
51359;BME280;37448;51.588;7.248;2023-05-10T10:27:26;100471.97;;;16.04;88.73
51359;BME280;37448;51.588;7.248;2023-05-10T10:29:50;100463.47;;;15.78;89.96
51359;BME280;37448;51.588;7.248;2023-05-10T10:32:06;100470.47;;;15.79;92.74
51359;BME280;37448;51.588;7.248;2023-05-10T10:34:08;100473.28;;;15.56;91.89
51359;BME280;37448;51.588;7.248;2023-05-10T10:36:11;100481.06;;;15.38;92.37
51359;BME280;37448;51.588;7.248;2023-05-10T10:38:13;100477.13;;;15.28;93.22
51359;BME280;37448;51.588;7.248;2023-05-10T10:42:44;100475.63;;;14.81;93.61
51359;BME280;37448;51.588;7.248;2023-05-10T10:45:12;100483.03;;;14.71;94.58
51359;BME280;37448;51.588;7.248;2023-05-10T10:52:13;100489.44;;;14.63;94.92
51359;BME280;37448;51.588;7.248;2023-05-10T10:54:27;100481.47;;;14.65;94.79
51359;BME280;37448;51.588;7.248;2023-05-10T10:56:27;100478.44;;;14.76;94.85
51359;BME280;37448;51.588;7.248;2023-05-10T10:58:31;100490.84;;;14.72;92.31
51359;BME280;37448;51.588;7.248;2023-05-10T11:00:34;100489.63;;;15.02;94.84